sensor_id;sensor_type;location;lat;lon;timestamp;temperature;humidity
80192;SHT31;69513;51.990;5.704;2023-04-21T00:02:23;11.9;65.2
80192;SHT31;69513;51.990;5.704;2023-04-21T00:04:54;11.9;65.5
80192;SHT31;69513;51.990;5.704;2023-04-21T00:07:25;11.8;65.5
80192;SHT31;69513;51.990;5.704;2023-04-21T00:09:57;11.8;65.2
80192;SHT31;69513;51.990;5.704;2023-04-21T00:12:26;11.8;65.6
80192;SHT31;69513;51.990;5.704;2023-04-21T00:14:56;11.8;65.7
80192;SHT31;69513;51.990;5.704;2023-04-21T00:17:26;11.8;65.5
80192;SHT31;69513;51.990;5.704;2023-04-21T00:19:57;11.8;65.6
80192;SHT31;69513;51.990;5.704;2023-04-21T00:22:26;11.7;65.8
80192;SHT31;69513;51.990;5.704;2023-04-21T00:24:56;11.7;65.6
80192;SHT31;69513;51.990;5.704;2023-04-21T00:27:25;11.7;66.2
80192;SHT31;69513;51.990;5.704;2023-04-21T00:29:55;11.7;66.4
80192;SHT31;69513;51.990;5.704;2023-04-21T00:32:24;11.7;66.1
80192;SHT31;69513;51.990;5.704;2023-04-21T00:34:55;11.7;66.2
80192;SHT31;69513;51.990;5.704;2023-04-21T00:37:25;11.7;66.4
80192;SHT31;69513;51.990;5.704;2023-04-21T00:39:58;11.6;66.3
80192;SHT31;69513;51.990;5.704;2023-04-21T00:42:31;11.6;66.4
80192;SHT31;69513;51.990;5.704;2023-04-21T00:45:01;11.6;66.8
80192;SHT31;69513;51.990;5.704;2023-04-21T00:47:34;11.6;66.8
80192;SHT31;69513;51.990;5.704;2023-04-21T00:50:05;11.6;66.9
80192;SHT31;69513;51.990;5.704;2023-04-21T00:52:38;11.6;67.0
80192;SHT31;69513;51.990;5.704;2023-04-21T00:55:12;11.6;67.2
80192;SHT31;69513;51.990;5.704;2023-04-21T00:57:44;11.6;67.2
80192;SHT31;69513;51.990;5.704;2023-04-21T01:00:19;11.6;67.2
80192;SHT31;69513;51.990;5.704;2023-04-21T01:02:50;11.6;67.3
80192;SHT31;69513;51.990;5.704;2023-04-21T01:05:21;11.6;67.1
80192;SHT31;69513;51.990;5.704;2023-04-21T01:07:54;11.6;67.0
80192;SHT31;69513;51.990;5.704;2023-04-21T01:10:24;11.6;67.5
80192;SHT31;69513;51.990;5.704;2023-04-21T01:12:54;11.6;67.4
80192;SHT31;69513;51.990;5.704;2023-04-21T01:15:24;11.6;67.6
80192;SHT31;69513;51.990;5.704;2023-04-21T01:17:58;11.6;67.4
80192;SHT31;69513;51.990;5.704;2023-04-21T01:20:31;11.5;67.5
80192;SHT31;69513;51.990;5.704;2023-04-21T01:23:02;11.5;67.6
80192;SHT31;69513;51.990;5.704;2023-04-21T01:25:32;11.5;67.7
80192;SHT31;69513;51.990;5.704;2023-04-21T01:28:04;11.5;67.6
80192;SHT31;69513;51.990;5.704;2023-04-21T01:30:33;11.5;67.7
80192;SHT31;69513;51.990;5.704;2023-04-21T01:33:04;11.5;67.9
80192;SHT31;69513;51.990;5.704;2023-04-21T01:35:35;11.5;67.8
80192;SHT31;69513;51.990;5.704;2023-04-21T01:38:05;11.5;68.0
80192;SHT31;69513;51.990;5.704;2023-04-21T01:40:34;11.5;68.3
80192;SHT31;69513;51.990;5.704;2023-04-21T01:43:06;11.5;68.4
80192;SHT31;69513;51.990;5.704;2023-04-21T01:45:37;11.5;68.6
80192;SHT31;69513;51.990;5.704;2023-04-21T01:48:08;11.5;68.6
80192;SHT31;69513;51.990;5.704;2023-04-21T01:50:39;11.5;68.6
80192;SHT31;69513;51.990;5.704;2023-04-21T01:53:09;11.5;68.8
80192;SHT31;69513;51.990;5.704;2023-04-21T01:55:38;11.5;68.9
80192;SHT31;69513;51.990;5.704;2023-04-21T01:58:08;11.5;68.7
80192;SHT31;69513;51.990;5.704;2023-04-21T02:00:38;11.5;68.9
80192;SHT31;69513;51.990;5.704;2023-04-21T02:03:08;11.5;68.9
80192;SHT31;69513;51.990;5.704;2023-04-21T02:05:39;11.5;68.8
80192;SHT31;69513;51.990;5.704;2023-04-21T02:08:09;11.5;68.7
80192;SHT31;69513;51.990;5.704;2023-04-21T02:10:38;11.5;68.8
80192;SHT31;69513;51.990;5.704;2023-04-21T02:13:08;11.5;69.1
80192;SHT31;69513;51.990;5.704;2023-04-21T02:15:39;11.5;68.8
80192;SHT31;69513;51.990;5.704;2023-04-21T02:18:08;11.5;68.8
80192;SHT31;69513;51.990;5.704;2023-04-21T02:20:38;11.5;68.9
80192;SHT31;69513;51.990;5.704;2023-04-21T02:23:10;11.5;68.7
80192;SHT31;69513;51.990;5.704;2023-04-21T02:25:40;11.5;68.8
80192;SHT31;69513;51.990;5.704;2023-04-21T02:28:09;11.5;69.0
80192;SHT31;69513;51.990;5.704;2023-04-21T02:30:41;11.5;68.9
80192;SHT31;69513;51.990;5.704;2023-04-21T02:33:10;11.5;69.0
80192;SHT31;69513;51.990;5.704;2023-04-21T02:35:41;11.5;69.0
80192;SHT31;69513;51.990;5.704;2023-04-21T02:38:10;11.5;69.1
80192;SHT31;69513;51.990;5.704;2023-04-21T02:40:40;11.5;69.2
80192;SHT31;69513;51.990;5.704;2023-04-21T02:43:10;11.5;69.2
80192;SHT31;69513;51.990;5.704;2023-04-21T02:45:44;11.5;69.2
80192;SHT31;69513;51.990;5.704;2023-04-21T02:48:14;11.5;69.4
80192;SHT31;69513;51.990;5.704;2023-04-21T02:50:49;11.5;69.2
80192;SHT31;69513;51.990;5.704;2023-04-21T02:53:21;11.5;69.3
80192;SHT31;69513;51.990;5.704;2023-04-21T02:55:51;11.5;69.2
80192;SHT31;69513;51.990;5.704;2023-04-21T02:58:23;11.5;69.4
80192;SHT31;69513;51.990;5.704;2023-04-21T03:00:52;11.5;69.6
80192;SHT31;69513;51.990;5.704;2023-04-21T03:03:22;11.5;69.5
80192;SHT31;69513;51.990;5.704;2023-04-21T03:05:57;11.5;69.7
80192;SHT31;69513;51.990;5.704;2023-04-21T03:08:29;11.5;69.6
80192;SHT31;69513;51.990;5.704;2023-04-21T03:11:00;11.5;69.6
80192;SHT31;69513;51.990;5.704;2023-04-21T03:13:32;11.5;69.6
80192;SHT31;69513;51.990;5.704;2023-04-21T03:16:01;11.5;69.5
80192;SHT31;69513;51.990;5.704;2023-04-21T03:18:35;11.5;69.5
80192;SHT31;69513;51.990;5.704;2023-04-21T03:21:06;11.5;69.4
80192;SHT31;69513;51.990;5.704;2023-04-21T03:23:36;11.5;69.5
80192;SHT31;69513;51.990;5.704;2023-04-21T03:26:08;11.5;69.6
80192;SHT31;69513;51.990;5.704;2023-04-21T03:28:38;11.5;69.6
80192;SHT31;69513;51.990;5.704;2023-04-21T03:31:08;11.5;69.5
80192;SHT31;69513;51.990;5.704;2023-04-21T03:33:37;11.5;69.5
80192;SHT31;69513;51.990;5.704;2023-04-21T03:36:10;11.5;69.4
80192;SHT31;69513;51.990;5.704;2023-04-21T03:38:42;11.5;69.7
80192;SHT31;69513;51.990;5.704;2023-04-21T03:41:11;11.5;69.6
80192;SHT31;69513;51.990;5.704;2023-04-21T03:43:41;11.5;69.5
80192;SHT31;69513;51.990;5.704;2023-04-21T03:46:20;11.5;69.6
80192;SHT31;69513;51.990;5.704;2023-04-21T03:48:50;11.5;69.8
80192;SHT31;69513;51.990;5.704;2023-04-21T03:51:22;11.5;69.7
80192;SHT31;69513;51.990;5.704;2023-04-21T03:53:54;11.5;69.8
80192;SHT31;69513;51.990;5.704;2023-04-21T03:56:23;11.4;69.8
80192;SHT31;69513;51.990;5.704;2023-04-21T03:58:53;11.4;69.9
80192;SHT31;69513;51.990;5.704;2023-04-21T04:01:22;11.4;70.1
80192;SHT31;69513;51.990;5.704;2023-04-21T04:03:52;11.4;70.2
80192;SHT31;69513;51.990;5.704;2023-04-21T04:06:22;11.4;70.1
80192;SHT31;69513;51.990;5.704;2023-04-21T04:08:53;11.4;70.1
80192;SHT31;69513;51.990;5.704;2023-04-21T04:11:24;11.5;70.2
80192;SHT31;69513;51.990;5.704;2023-04-21T04:13:53;11.5;70.4
80192;SHT31;69513;51.990;5.704;2023-04-21T04:16:23;11.5;70.4
80192;SHT31;69513;51.990;5.704;2023-04-21T04:18:52;11.5;70.2
80192;SHT31;69513;51.990;5.704;2023-04-21T04:21:23;11.5;70.2
80192;SHT31;69513;51.990;5.704;2023-04-21T04:23:54;11.5;70.5
80192;SHT31;69513;51.990;5.704;2023-04-21T04:26:25;11.5;70.5
80192;SHT31;69513;51.990;5.704;2023-04-21T04:28:56;11.5;70.6
80192;SHT31;69513;51.990;5.704;2023-04-21T04:31:30;11.5;70.4
80192;SHT31;69513;51.990;5.704;2023-04-21T04:34:01;11.5;70.5
80192;SHT31;69513;51.990;5.704;2023-04-21T04:36:32;11.5;70.6
80192;SHT31;69513;51.990;5.704;2023-04-21T04:39:03;11.5;70.6
80192;SHT31;69513;51.990;5.704;2023-04-21T04:41:35;11.5;70.7
80192;SHT31;69513;51.990;5.704;2023-04-21T04:44:08;11.5;70.8
80192;SHT31;69513;51.990;5.704;2023-04-21T04:46:39;11.5;70.6
80192;SHT31;69513;51.990;5.704;2023-04-21T04:49:09;11.5;70.6
80192;SHT31;69513;51.990;5.704;2023-04-21T04:51:39;11.5;70.5
80192;SHT31;69513;51.990;5.704;2023-04-21T04:54:08;11.5;70.5
80192;SHT31;69513;51.990;5.704;2023-04-21T04:56:38;11.5;70.5
80192;SHT31;69513;51.990;5.704;2023-04-21T04:59:07;11.5;70.5
80192;SHT31;69513;51.990;5.704;2023-04-21T05:01:37;11.5;70.5
80192;SHT31;69513;51.990;5.704;2023-04-21T05:04:10;11.4;70.5
80192;SHT31;69513;51.990;5.704;2023-04-21T05:06:42;11.4;70.4
80192;SHT31;69513;51.990;5.704;2023-04-21T05:09:13;11.4;70.5
80192;SHT31;69513;51.990;5.704;2023-04-21T05:11:43;11.4;70.7
80192;SHT31;69513;51.990;5.704;2023-04-21T05:14:13;11.4;70.9
80192;SHT31;69513;51.990;5.704;2023-04-21T05:16:44;11.4;70.9
80192;SHT31;69513;51.990;5.704;2023-04-21T05:19:14;11.4;71.0
80192;SHT31;69513;51.990;5.704;2023-04-21T05:21:43;11.4;71.1
80192;SHT31;69513;51.990;5.704;2023-04-21T05:24:13;11.4;71.1
80192;SHT31;69513;51.990;5.704;2023-04-21T05:26:42;11.4;71.2
80192;SHT31;69513;51.990;5.704;2023-04-21T05:29:12;11.4;71.3
80192;SHT31;69513;51.990;5.704;2023-04-21T05:31:42;11.4;71.4
80192;SHT31;69513;51.990;5.704;2023-04-21T05:34:12;11.4;71.7
80192;SHT31;69513;51.990;5.704;2023-04-21T05:36:43;11.4;71.8
80192;SHT31;69513;51.990;5.704;2023-04-21T05:39:15;11.4;72.0
80192;SHT31;69513;51.990;5.704;2023-04-21T05:41:45;11.4;71.9
80192;SHT31;69513;51.990;5.704;2023-04-21T05:44:15;11.4;72.1
80192;SHT31;69513;51.990;5.704;2023-04-21T05:46:46;11.5;72.1
80192;SHT31;69513;51.990;5.704;2023-04-21T05:49:18;11.5;72.1
80192;SHT31;69513;51.990;5.704;2023-04-21T05:51:48;11.5;72.1
80192;SHT31;69513;51.990;5.704;2023-04-21T05:54:19;11.5;72.2
80192;SHT31;69513;51.990;5.704;2023-04-21T05:56:49;11.5;72.3
80192;SHT31;69513;51.990;5.704;2023-04-21T05:59:18;11.5;72.2
80192;SHT31;69513;51.990;5.704;2023-04-21T06:01:48;11.5;72.3
80192;SHT31;69513;51.990;5.704;2023-04-21T06:04:19;11.6;72.3
80192;SHT31;69513;51.990;5.704;2023-04-21T06:06:49;11.6;72.5
80192;SHT31;69513;51.990;5.704;2023-04-21T06:09:18;11.6;72.8
80192;SHT31;69513;51.990;5.704;2023-04-21T06:11:48;11.6;72.7
80192;SHT31;69513;51.990;5.704;2023-04-21T06:14:20;11.6;72.9
80192;SHT31;69513;51.990;5.704;2023-04-21T06:16:50;11.6;73.0
80192;SHT31;69513;51.990;5.704;2023-04-21T06:19:19;11.6;73.1
80192;SHT31;69513;51.990;5.704;2023-04-21T06:21:49;11.7;73.2
80192;SHT31;69513;51.990;5.704;2023-04-21T06:24:19;11.7;73.2
80192;SHT31;69513;51.990;5.704;2023-04-21T06:26:52;11.7;73.2
80192;SHT31;69513;51.990;5.704;2023-04-21T06:29:22;11.7;73.6
80192;SHT31;69513;51.990;5.704;2023-04-21T06:31:52;11.8;73.6
80192;SHT31;69513;51.990;5.704;2023-04-21T06:34:21;11.8;73.3
80192;SHT31;69513;51.990;5.704;2023-04-21T06:36:51;11.8;73.4
80192;SHT31;69513;51.990;5.704;2023-04-21T06:39:21;11.9;73.5
80192;SHT31;69513;51.990;5.704;2023-04-21T06:41:51;11.9;73.3
80192;SHT31;69513;51.990;5.704;2023-04-21T06:44:23;11.9;73.6
80192;SHT31;69513;51.990;5.704;2023-04-21T06:46:52;11.9;73.4
80192;SHT31;69513;51.990;5.704;2023-04-21T06:49:23;12.0;73.7
80192;SHT31;69513;51.990;5.704;2023-04-21T06:51:59;12.0;74.2
80192;SHT31;69513;51.990;5.704;2023-04-21T06:54:29;12.0;74.0
80192;SHT31;69513;51.990;5.704;2023-04-21T06:57:00;12.1;74.1
80192;SHT31;69513;51.990;5.704;2023-04-21T06:59:29;12.1;74.0
80192;SHT31;69513;51.990;5.704;2023-04-21T07:01:59;12.1;74.3
80192;SHT31;69513;51.990;5.704;2023-04-21T07:04:29;12.1;74.1
80192;SHT31;69513;51.990;5.704;2023-04-21T07:06:58;12.2;74.0
80192;SHT31;69513;51.990;5.704;2023-04-21T07:09:28;12.2;74.4
80192;SHT31;69513;51.990;5.704;2023-04-21T07:12:01;12.2;74.3
80192;SHT31;69513;51.990;5.704;2023-04-21T07:14:31;12.2;74.0
80192;SHT31;69513;51.990;5.704;2023-04-21T07:17:00;12.3;74.2
80192;SHT31;69513;51.990;5.704;2023-04-21T07:19:30;12.3;74.5
80192;SHT31;69513;51.990;5.704;2023-04-21T07:22:00;12.3;75.0
80192;SHT31;69513;51.990;5.704;2023-04-21T07:24:31;12.4;74.9
80192;SHT31;69513;51.990;5.704;2023-04-21T07:27:03;12.4;75.4
80192;SHT31;69513;51.990;5.704;2023-04-21T07:29:35;12.4;75.9
80192;SHT31;69513;51.990;5.704;2023-04-21T07:32:04;12.5;75.7
80192;SHT31;69513;51.990;5.704;2023-04-21T07:34:34;12.5;75.7
80192;SHT31;69513;51.990;5.704;2023-04-21T07:37:05;12.5;75.3
80192;SHT31;69513;51.990;5.704;2023-04-21T07:39:35;12.6;75.0
80192;SHT31;69513;51.990;5.704;2023-04-21T07:42:06;12.6;75.2
80192;SHT31;69513;51.990;5.704;2023-04-21T07:44:38;12.7;75.3
80192;SHT31;69513;51.990;5.704;2023-04-21T07:47:07;12.7;74.7
80192;SHT31;69513;51.990;5.704;2023-04-21T07:49:39;12.7;74.6
80192;SHT31;69513;51.990;5.704;2023-04-21T07:52:09;12.8;74.4
80192;SHT31;69513;51.990;5.704;2023-04-21T07:54:38;12.8;74.4
80192;SHT31;69513;51.990;5.704;2023-04-21T07:57:08;12.9;73.9
80192;SHT31;69513;51.990;5.704;2023-04-21T07:59:37;12.9;73.7
80192;SHT31;69513;51.990;5.704;2023-04-21T08:02:07;12.9;73.8
80192;SHT31;69513;51.990;5.704;2023-04-21T08:04:40;13.0;73.5
80192;SHT31;69513;51.990;5.704;2023-04-21T08:07:10;13.0;73.5
80192;SHT31;69513;51.990;5.704;2023-04-21T08:09:42;13.1;73.6
80192;SHT31;69513;51.990;5.704;2023-04-21T08:12:12;13.1;73.1
80192;SHT31;69513;51.990;5.704;2023-04-21T08:14:42;13.1;73.2
80192;SHT31;69513;51.990;5.704;2023-04-21T08:17:12;13.1;73.2
80192;SHT31;69513;51.990;5.704;2023-04-21T08:19:42;13.2;73.7
80192;SHT31;69513;51.990;5.704;2023-04-21T08:22:12;13.2;71.9
80192;SHT31;69513;51.990;5.704;2023-04-21T08:24:42;13.2;72.7
80192;SHT31;69513;51.990;5.704;2023-04-21T08:27:11;13.3;73.7
80192;SHT31;69513;51.990;5.704;2023-04-21T08:29:41;13.3;73.4
80192;SHT31;69513;51.990;5.704;2023-04-21T08:32:10;13.4;73.9
80192;SHT31;69513;51.990;5.704;2023-04-21T08:34:40;13.4;74.2
80192;SHT31;69513;51.990;5.704;2023-04-21T08:37:11;13.5;71.7
80192;SHT31;69513;51.990;5.704;2023-04-21T08:39:41;13.6;72.7
80192;SHT31;69513;51.990;5.704;2023-04-21T08:42:12;13.6;72.1
80192;SHT31;69513;51.990;5.704;2023-04-21T08:44:43;13.6;71.6
80192;SHT31;69513;51.990;5.704;2023-04-21T08:47:15;13.7;70.8
80192;SHT31;69513;51.990;5.704;2023-04-21T08:49:50;13.7;71.1
80192;SHT31;69513;51.990;5.704;2023-04-21T08:52:21;13.8;71.2
80192;SHT31;69513;51.990;5.704;2023-04-21T08:54:50;13.8;71.5
80192;SHT31;69513;51.990;5.704;2023-04-21T08:57:22;13.8;70.8
80192;SHT31;69513;51.990;5.704;2023-04-21T08:59:52;13.9;70.0
80192;SHT31;69513;51.990;5.704;2023-04-21T09:02:23;13.9;69.6
80192;SHT31;69513;51.990;5.704;2023-04-21T09:04:55;13.9;70.8
80192;SHT31;69513;51.990;5.704;2023-04-21T09:07:35;13.9;70.4
80192;SHT31;69513;51.990;5.704;2023-04-21T09:10:10;14.0;70.4
80192;SHT31;69513;51.990;5.704;2023-04-21T09:12:39;14.0;68.8
80192;SHT31;69513;51.990;5.704;2023-04-21T09:15:12;14.1;69.1
80192;SHT31;69513;51.990;5.704;2023-04-21T09:17:45;14.1;70.4
80192;SHT31;69513;51.990;5.704;2023-04-21T09:20:17;14.1;70.6
80192;SHT31;69513;51.990;5.704;2023-04-21T09:22:49;14.2;68.5
80192;SHT31;69513;51.990;5.704;2023-04-21T09:25:23;14.2;69.4
80192;SHT31;69513;51.990;5.704;2023-04-21T09:27:54;14.2;69.0
80192;SHT31;69513;51.990;5.704;2023-04-21T09:30:27;14.3;67.9
80192;SHT31;69513;51.990;5.704;2023-04-21T09:32:58;14.3;68.6
80192;SHT31;69513;51.990;5.704;2023-04-21T09:35:31;14.3;68.8
80192;SHT31;69513;51.990;5.704;2023-04-21T09:38:05;14.4;69.4
80192;SHT31;69513;51.990;5.704;2023-04-21T09:40:38;14.4;68.2
80192;SHT31;69513;51.990;5.704;2023-04-21T09:43:09;14.4;69.0
80192;SHT31;69513;51.990;5.704;2023-04-21T09:45:41;14.5;68.2
80192;SHT31;69513;51.990;5.704;2023-04-21T09:48:13;14.5;67.7
80192;SHT31;69513;51.990;5.704;2023-04-21T09:50:48;14.6;67.4
80192;SHT31;69513;51.990;5.704;2023-04-21T09:53:24;14.6;67.5
80192;SHT31;69513;51.990;5.704;2023-04-21T09:55:59;14.7;66.4
80192;SHT31;69513;51.990;5.704;2023-04-21T09:58:39;14.7;67.2
80192;SHT31;69513;51.990;5.704;2023-04-21T10:01:11;14.8;66.0
80192;SHT31;69513;51.990;5.704;2023-04-21T10:03:43;14.8;65.7
80192;SHT31;69513;51.990;5.704;2023-04-21T10:06:15;14.9;65.9
80192;SHT31;69513;51.990;5.704;2023-04-21T10:08:46;14.9;64.0
80192;SHT31;69513;51.990;5.704;2023-04-21T10:11:18;14.9;64.4
80192;SHT31;69513;51.990;5.704;2023-04-21T10:13:47;15.0;64.7
80192;SHT31;69513;51.990;5.704;2023-04-21T10:16:18;15.0;64.5
80192;SHT31;69513;51.990;5.704;2023-04-21T10:18:49;15.0;65.4
80192;SHT31;69513;51.990;5.704;2023-04-21T10:21:21;15.0;64.4
80192;SHT31;69513;51.990;5.704;2023-04-21T10:23:54;15.0;65.2
80192;SHT31;69513;51.990;5.704;2023-04-21T10:26:33;15.0;65.2
80192;SHT31;69513;51.990;5.704;2023-04-21T10:29:06;15.0;65.4
80192;SHT31;69513;51.990;5.704;2023-04-21T10:31:52;15.1;65.0
80192;SHT31;69513;51.990;5.704;2023-04-21T10:34:34;15.1;65.4
80192;SHT31;69513;51.990;5.704;2023-04-21T10:37:16;15.1;65.3
80192;SHT31;69513;51.990;5.704;2023-04-21T10:39:52;15.2;65.1
80192;SHT31;69513;51.990;5.704;2023-04-21T10:42:28;15.2;65.5
80192;SHT31;69513;51.990;5.704;2023-04-21T10:45:06;15.2;64.6
80192;SHT31;69513;51.990;5.704;2023-04-21T10:47:40;15.3;65.6
80192;SHT31;69513;51.990;5.704;2023-04-21T10:50:15;15.4;65.1
80192;SHT31;69513;51.990;5.704;2023-04-21T10:52:53;15.4;64.1
80192;SHT31;69513;51.990;5.704;2023-04-21T10:55:28;15.5;64.3
80192;SHT31;69513;51.990;5.704;2023-04-21T10:58:04;15.6;62.4
80192;SHT31;69513;51.990;5.704;2023-04-21T11:00:36;15.6;63.9
80192;SHT31;69513;51.990;5.704;2023-04-21T11:03:08;15.6;64.9
80192;SHT31;69513;51.990;5.704;2023-04-21T11:05:40;15.7;63.7
80192;SHT31;69513;51.990;5.704;2023-04-21T11:08:13;15.8;63.0
80192;SHT31;69513;51.990;5.704;2023-04-21T11:10:51;15.8;63.6
80192;SHT31;69513;51.990;5.704;2023-04-21T11:13:25;15.9;62.2
80192;SHT31;69513;51.990;5.704;2023-04-21T11:16:05;15.9;61.6
80192;SHT31;69513;51.990;5.704;2023-04-21T11:18:42;15.9;62.2
80192;SHT31;69513;51.990;5.704;2023-04-21T11:21:15;15.9;61.0
80192;SHT31;69513;51.990;5.704;2023-04-21T11:23:52;15.9;60.7
80192;SHT31;69513;51.990;5.704;2023-04-21T11:26:34;15.9;60.8
80192;SHT31;69513;51.990;5.704;2023-04-21T11:29:07;15.9;61.3
80192;SHT31;69513;51.990;5.704;2023-04-21T11:31:40;16.0;61.0
80192;SHT31;69513;51.990;5.704;2023-04-21T11:34:13;16.0;61.2
80192;SHT31;69513;51.990;5.704;2023-04-21T11:36:48;16.0;61.6
80192;SHT31;69513;51.990;5.704;2023-04-21T11:39:19;16.1;59.7
80192;SHT31;69513;51.990;5.704;2023-04-21T11:41:50;16.1;60.8
80192;SHT31;69513;51.990;5.704;2023-04-21T11:44:36;16.2;62.7
80192;SHT31;69513;51.990;5.704;2023-04-21T11:47:16;16.3;62.1
80192;SHT31;69513;51.990;5.704;2023-04-21T11:49:50;16.5;59.6
80192;SHT31;69513;51.990;5.704;2023-04-21T11:52:28;16.6;57.5
80192;SHT31;69513;51.990;5.704;2023-04-21T11:55:02;16.6;57.2
80192;SHT31;69513;51.990;5.704;2023-04-21T11:57:33;16.6;58.7
80192;SHT31;69513;51.990;5.704;2023-04-21T12:00:05;16.7;59.1
80192;SHT31;69513;51.990;5.704;2023-04-21T12:02:40;16.7;59.4
80192;SHT31;69513;51.990;5.704;2023-04-21T12:05:12;16.7;58.3
80192;SHT31;69513;51.990;5.704;2023-04-21T12:07:45;16.8;58.6
80192;SHT31;69513;51.990;5.704;2023-04-21T12:10:20;16.9;58.2
80192;SHT31;69513;51.990;5.704;2023-04-21T12:12:50;16.9;58.5
80192;SHT31;69513;51.990;5.704;2023-04-21T12:15:22;17.0;58.5
80192;SHT31;69513;51.990;5.704;2023-04-21T12:17:54;17.0;58.0
80192;SHT31;69513;51.990;5.704;2023-04-21T12:20:28;17.1;57.0
80192;SHT31;69513;51.990;5.704;2023-04-21T12:22:58;17.1;56.7
80192;SHT31;69513;51.990;5.704;2023-04-21T12:25:28;17.1;56.6
80192;SHT31;69513;51.990;5.704;2023-04-21T12:27:58;17.1;57.7
80192;SHT31;69513;51.990;5.704;2023-04-21T12:30:30;17.1;58.3
80192;SHT31;69513;51.990;5.704;2023-04-21T12:33:00;17.2;57.9
80192;SHT31;69513;51.990;5.704;2023-04-21T12:35:31;17.2;57.5
80192;SHT31;69513;51.990;5.704;2023-04-21T12:38:02;17.2;56.5
80192;SHT31;69513;51.990;5.704;2023-04-21T12:40:32;17.2;56.8
80192;SHT31;69513;51.990;5.704;2023-04-21T12:43:01;17.2;57.2
80192;SHT31;69513;51.990;5.704;2023-04-21T12:45:31;17.2;57.5
80192;SHT31;69513;51.990;5.704;2023-04-21T12:48:01;17.2;58.7
80192;SHT31;69513;51.990;5.704;2023-04-21T12:50:33;17.2;58.2
80192;SHT31;69513;51.990;5.704;2023-04-21T12:53:02;17.3;58.5
80192;SHT31;69513;51.990;5.704;2023-04-21T12:55:33;17.3;56.7
80192;SHT31;69513;51.990;5.704;2023-04-21T12:58:04;17.3;56.5
80192;SHT31;69513;51.990;5.704;2023-04-21T13:00:34;17.3;56.8
80192;SHT31;69513;51.990;5.704;2023-04-21T13:03:06;17.4;56.5
80192;SHT31;69513;51.990;5.704;2023-04-21T13:05:36;17.4;58.2
80192;SHT31;69513;51.990;5.704;2023-04-21T13:08:08;17.5;55.6
80192;SHT31;69513;51.990;5.704;2023-04-21T13:10:37;17.5;56.3
80192;SHT31;69513;51.990;5.704;2023-04-21T13:13:07;17.5;56.4
80192;SHT31;69513;51.990;5.704;2023-04-21T13:15:38;17.5;56.4
80192;SHT31;69513;51.990;5.704;2023-04-21T13:18:09;17.5;55.8
80192;SHT31;69513;51.990;5.704;2023-04-21T13:20:38;17.5;56.3
80192;SHT31;69513;51.990;5.704;2023-04-21T13:23:08;17.5;56.1
80192;SHT31;69513;51.990;5.704;2023-04-21T13:25:40;17.5;56.7
80192;SHT31;69513;51.990;5.704;2023-04-21T13:28:11;17.6;56.2
80192;SHT31;69513;51.990;5.704;2023-04-21T13:30:43;17.7;57.1
80192;SHT31;69513;51.990;5.704;2023-04-21T13:33:17;17.8;56.2
80192;SHT31;69513;51.990;5.704;2023-04-21T13:35:50;18.0;57.2
80192;SHT31;69513;51.990;5.704;2023-04-21T13:38:21;18.3;54.9
80192;SHT31;69513;51.990;5.704;2023-04-21T13:40:50;18.5;55.5
80192;SHT31;69513;51.990;5.704;2023-04-21T13:43:20;18.8;53.6
80192;SHT31;69513;51.990;5.704;2023-04-21T13:45:51;19.0;52.2
80192;SHT31;69513;51.990;5.704;2023-04-21T13:48:21;19.3;52.4
80192;SHT31;69513;51.990;5.704;2023-04-21T13:50:53;19.5;51.9
80192;SHT31;69513;51.990;5.704;2023-04-21T13:53:22;19.6;49.2
80192;SHT31;69513;51.990;5.704;2023-04-21T13:55:54;19.9;50.8
80192;SHT31;69513;51.990;5.704;2023-04-21T13:58:27;20.1;50.6
80192;SHT31;69513;51.990;5.704;2023-04-21T14:00:58;20.2;48.5
80192;SHT31;69513;51.990;5.704;2023-04-21T14:03:27;20.3;47.2
80192;SHT31;69513;51.990;5.704;2023-04-21T14:05:59;20.3;48.0
80192;SHT31;69513;51.990;5.704;2023-04-21T14:08:30;20.3;48.0
80192;SHT31;69513;51.990;5.704;2023-04-21T14:11:01;20.2;47.4
80192;SHT31;69513;51.990;5.704;2023-04-21T14:13:30;20.1;47.2
80192;SHT31;69513;51.990;5.704;2023-04-21T14:16:02;20.0;48.3
80192;SHT31;69513;51.990;5.704;2023-04-21T14:18:35;19.9;48.6
80192;SHT31;69513;51.990;5.704;2023-04-21T14:21:11;19.8;48.1
80192;SHT31;69513;51.990;5.704;2023-04-21T14:23:41;19.7;48.4
80192;SHT31;69513;51.990;5.704;2023-04-21T14:26:10;19.7;49.2
80192;SHT31;69513;51.990;5.704;2023-04-21T14:28:40;19.8;49.6
80192;SHT31;69513;51.990;5.704;2023-04-21T14:31:11;19.8;49.5
80192;SHT31;69513;51.990;5.704;2023-04-21T14:33:41;20.0;49.5
80192;SHT31;69513;51.990;5.704;2023-04-21T14:36:12;20.1;48.7
80192;SHT31;69513;51.990;5.704;2023-04-21T14:38:42;20.2;48.2
80192;SHT31;69513;51.990;5.704;2023-04-21T14:41:12;20.3;48.3
80192;SHT31;69513;51.990;5.704;2023-04-21T14:43:42;20.3;47.5
80192;SHT31;69513;51.990;5.704;2023-04-21T14:46:13;20.3;48.0
80192;SHT31;69513;51.990;5.704;2023-04-21T14:48:45;20.2;48.3
80192;SHT31;69513;51.990;5.704;2023-04-21T14:51:15;20.2;48.5
80192;SHT31;69513;51.990;5.704;2023-04-21T14:53:46;20.1;48.2
80192;SHT31;69513;51.990;5.704;2023-04-21T14:56:17;20.1;49.6
80192;SHT31;69513;51.990;5.704;2023-04-21T14:58:48;20.1;49.7
80192;SHT31;69513;51.990;5.704;2023-04-21T15:01:18;20.1;49.0
80192;SHT31;69513;51.990;5.704;2023-04-21T15:03:50;20.1;49.3
80192;SHT31;69513;51.990;5.704;2023-04-21T15:06:24;20.2;48.2
80192;SHT31;69513;51.990;5.704;2023-04-21T15:08:54;20.2;48.7
80192;SHT31;69513;51.990;5.704;2023-04-21T15:11:24;20.2;48.3
80192;SHT31;69513;51.990;5.704;2023-04-21T15:13:54;20.3;48.5
80192;SHT31;69513;51.990;5.704;2023-04-21T15:16:24;20.3;48.9
80192;SHT31;69513;51.990;5.704;2023-04-21T15:18:54;20.4;49.2
80192;SHT31;69513;51.990;5.704;2023-04-21T15:21:25;20.4;48.5
80192;SHT31;69513;51.990;5.704;2023-04-21T15:23:55;20.5;47.4
80192;SHT31;69513;51.990;5.704;2023-04-21T15:26:25;20.5;48.3
80192;SHT31;69513;51.990;5.704;2023-04-21T15:28:57;20.6;47.9
80192;SHT31;69513;51.990;5.704;2023-04-21T15:31:27;20.7;47.1
80192;SHT31;69513;51.990;5.704;2023-04-21T15:33:57;20.7;47.5
80192;SHT31;69513;51.990;5.704;2023-04-21T15:36:27;20.7;46.2
80192;SHT31;69513;51.990;5.704;2023-04-21T15:38:59;20.8;47.7
80192;SHT31;69513;51.990;5.704;2023-04-21T15:41:29;20.8;47.2
80192;SHT31;69513;51.990;5.704;2023-04-21T15:44:00;20.8;46.6
80192;SHT31;69513;51.990;5.704;2023-04-21T15:46:29;20.8;47.5
80192;SHT31;69513;51.990;5.704;2023-04-21T15:49:02;20.8;47.4
80192;SHT31;69513;51.990;5.704;2023-04-21T15:51:34;20.9;47.4
80192;SHT31;69513;51.990;5.704;2023-04-21T15:54:07;20.9;48.5
80192;SHT31;69513;51.990;5.704;2023-04-21T15:56:39;21.0;47.2
80192;SHT31;69513;51.990;5.704;2023-04-21T15:59:08;21.0;46.7
80192;SHT31;69513;51.990;5.704;2023-04-21T16:01:38;21.0;47.2
80192;SHT31;69513;51.990;5.704;2023-04-21T16:04:07;21.1;47.0
80192;SHT31;69513;51.990;5.704;2023-04-21T16:06:38;21.3;46.7
80192;SHT31;69513;51.990;5.704;2023-04-21T16:09:07;21.5;46.2
80192;SHT31;69513;51.990;5.704;2023-04-21T16:11:37;21.6;46.3
80192;SHT31;69513;51.990;5.704;2023-04-21T16:14:07;21.8;45.7
80192;SHT31;69513;51.990;5.704;2023-04-21T16:16:43;21.9;44.7
80192;SHT31;69513;51.990;5.704;2023-04-21T16:19:15;21.9;44.4
80192;SHT31;69513;51.990;5.704;2023-04-21T16:21:45;22.0;45.0
80192;SHT31;69513;51.990;5.704;2023-04-21T16:24:16;22.0;44.5
80192;SHT31;69513;51.990;5.704;2023-04-21T16:26:45;22.0;45.0
80192;SHT31;69513;51.990;5.704;2023-04-21T16:29:16;22.1;44.7